Time;durP1;ratioP1;P1;durP2;ratioP2;P2;SDS_P1;SDS_P2;PMS_P1;PMS_P2;Temp;Humidity;BMP_temperature;BMP_pressure;BME280_temperature;BME280_humidity;BME280_pressure;Samples;Min_cycle;Max_cycle;Signal;HPM_P1;HPM_P2
2022/10/29 00:01:43;;;;;;;;;;;;;;;14.62;87.29;102096.28;5046555;28;19956;-60
2022/10/29 00:04:08;;;;;;;;;;;;;;;14.63;86.94;102089.94;5048355;28;19924;-60
2022/10/29 00:06:33;;;;;;;;;;;;;;;14.63;87.20;102084.59;5045906;28;19917;-61
2022/10/29 00:08:58;;;;;;;;;;;;;;;14.61;87.07;102075.06;5047219;28;19983;-61
2022/10/29 00:11:23;;;;;;;;;;;;;;;14.57;87.23;102074.56;5044365;28;19936;-60
2022/10/29 00:13:52;;;;;;;;;;;;;;;14.57;87.10;102079.94;5047824;28;19921;-61
2022/10/29 00:16:18;;;;;;;;;;;;;;;14.57;87.07;102066.56;5044279;28;19948;-60
2022/10/29 00:18:44;;;;;;;;;;;;;;;14.56;87.20;102056.88;5048026;28;20015;-61
2022/10/29 00:21:11;;;;;;;;;;;;;;;14.53;86.83;102062.56;5042022;28;20011;-61
2022/10/29 00:23:36;;;;;;;;;;;;;;;14.50;87.31;102069.06;5046291;28;20029;-60
2022/10/29 00:26:02;;;;;;;;;;;;;;;14.46;86.99;102067.72;5042942;28;19920;-60
2022/10/29 00:28:27;;;;;;;;;;;;;;;14.40;87.31;102071.00;5044102;28;20284;-60
2022/10/29 00:30:52;;;;;;;;;;;;;;;14.33;87.09;102070.00;5040674;28;20384;-61
2022/10/29 00:33:18;;;;;;;;;;;;;;;14.33;86.99;102078.03;5045241;28;20003;-61
2022/10/29 00:35:57;;;;;;;;;;;;;;;14.33;86.87;102075.34;5043599;28;20380;-61
2022/10/29 00:38:22;;;;;;;;;;;;;;;14.27;87.16;102071.50;5041293;28;19990;-60
2022/10/29 00:40:47;;;;;;;;;;;;;;;14.22;87.02;102073.00;5043270;28;20372;-60
2022/10/29 00:43:14;;;;;;;;;;;;;;;14.14;86.81;102071.13;5041536;28;19921;-61
2022/10/29 00:45:51;;;;;;;;;;;;;;;14.09;86.71;102076.13;5045620;28;20461;-61
2022/10/29 00:48:17;;;;;;;;;;;;;;;14.04;86.71;102069.63;5043509;28;20351;-61
2022/10/29 00:50:44;;;;;;;;;;;;;;;13.98;86.57;102081.78;5045081;28;19924;-61
2022/10/29 00:53:09;;;;;;;;;;;;;;;13.93;86.63;102076.09;5047573;28;19927;-61
2022/10/29 00:55:35;;;;;;;;;;;;;;;13.87;86.30;102080.22;5041638;28;19912;-61
2022/10/29 00:58:00;;;;;;;;;;;;;;;13.83;86.73;102076.22;5044489;28;19925;-61
2022/10/29 01:00:25;;;;;;;;;;;;;;;13.85;86.75;102079.56;5049257;28;20299;-61
2022/10/29 01:02:50;;;;;;;;;;;;;;;13.87;86.61;102082.91;5043488;28;19917;-61
2022/10/29 01:05:18;;;;;;;;;;;;;;;13.92;86.53;102087.78;5045283;28;21642;-61
2022/10/29 01:07:43;;;;;;;;;;;;;;;13.95;86.80;102079.44;5054307;28;19920;-61
2022/10/29 01:10:09;;;;;;;;;;;;;;;13.97;86.64;102071.28;5047339;28;19916;-61
2022/10/29 01:13:07;;;;;;;;;;;;;;;14.00;86.99;102066.44;5041484;28;19912;-60
2022/10/29 01:15:32;;;;;;;;;;;;;;;14.04;86.80;102062.44;5013552;28;19924;-61
2022/10/29 01:18:20;;;;;;;;;;;;;;;14.06;86.75;102054.25;5049444;28;19920;-60
2022/10/29 01:20:55;;;;;;;;;;;;;;;14.09;86.71;102062.78;5035093;28;19947;-61
2022/10/29 01:23:23;;;;;;;;;;;;;;;14.13;86.80;102057.94;5044811;28;19995;-61
2022/10/29 01:26:07;;;;;;;;;;;;;;;14.15;86.96;102048.75;5043590;28;19967;-60
2022/10/29 01:28:54;;;;;;;;;;;;;;;14.16;86.84;102053.09;5046542;28;20066;-61
2022/10/29 01:31:28;;;;;;;;;;;;;;;14.18;87.15;102056.47;5047122;28;19955;-60
2022/10/29 01:33:59;;;;;;;;;;;;;;;14.18;87.10;102053.81;5048900;28;19924;-60
2022/10/29 01:36:30;;;;;;;;;;;;;;;14.17;87.20;102053.97;5046063;28;20372;-61
2022/10/29 01:39:04;;;;;;;;;;;;;;;14.14;87.35;102047.09;5042265;28;19920;-61
2022/10/29 01:41:51;;;;;;;;;;;;;;;14.13;87.24;102040.06;5054013;28;19936;-61
2022/10/29 01:44:17;;;;;;;;;;;;;;;14.11;87.34;102041.25;5048943;28;19921;-61
2022/10/29 01:46:45;;;;;;;;;;;;;;;14.09;87.34;102033.41;5044589;28;19928;-61
2022/10/29 01:49:14;;;;;;;;;;;;;;;14.07;87.36;102030.06;5048785;28;19927;-61
2022/10/29 01:51:39;;;;;;;;;;;;;;;14.06;87.05;102030.22;5052014;28;19921;-61
2022/10/29 01:54:07;;;;;;;;;;;;;;;14.06;87.07;102016.88;5052361;28;19969;-61
2022/10/29 01:56:32;;;;;;;;;;;;;;;14.07;87.18;102005.19;5048778;28;20446;-61
2022/10/29 01:58:58;;;;;;;;;;;;;;;14.05;87.45;102002.66;5045572;28;19917;-61
2022/10/29 02:01:23;;;;;;;;;;;;;;;14.04;87.60;101995.66;5042065;28;19913;-61
2022/10/29 02:04:00;;;;;;;;;;;;;;;14.06;87.47;102006.19;5043596;28;20406;-60
2022/10/29 02:06:28;;;;;;;;;;;;;;;14.06;87.54;102007.00;5041812;28;19921;-61
2022/10/29 02:09:00;;;;;;;;;;;;;;;14.07;87.70;102005.19;5044490;28;20134;-61
2022/10/29 02:11:33;;;;;;;;;;;;;;;14.06;87.75;102007.00;5048712;28;20392;-61
2022/10/29 02:14:03;;;;;;;;;;;;;;;14.06;87.34;102016.88;5041139;28;19925;-61
2022/10/29 02:16:29;;;;;;;;;;;;;;;14.05;87.61;102013.34;5049706;28;19970;-61
2022/10/29 02:18:56;;;;;;;;;;;;;;;14.03;87.30;102012.69;5050957;28;19999;-61
2022/10/29 02:21:21;;;;;;;;;;;;;;;14.03;87.38;102011.84;5046749;28;20307;-61
2022/10/29 02:23:46;;;;;;;;;;;;;;;14.01;87.37;102008.50;5048361;28;20471;-61
2022/10/29 02:26:11;;;;;;;;;;;;;;;13.98;87.23;102003.50;5046966;28;19923;-60
2022/10/29 02:28:37;;;;;;;;;;;;;;;13.95;87.49;101997.50;5040608;28;19913;-60
2022/10/29 02:31:02;;;;;;;;;;;;;;;13.94;87.39;101992.31;5053272;28;20003;-61
2022/10/29 02:33:27;;;;;;;;;;;;;;;13.89;87.12;101990.16;5051840;28;19923;-60
2022/10/29 02:35:52;;;;;;;;;;;;;;;13.86;87.08;101989.59;5043889;28;19917;-61
2022/10/29 02:38:18;;;;;;;;;;;;;;;13.84;87.35;101987.09;5050694;28;19917;-60
2022/10/29 02:40:43;;;;;;;;;;;;;;;13.84;87.43;101983.59;5039135;28;20342;-61
2022/10/29 02:43:08;;;;;;;;;;;;;;;13.83;87.06;101984.59;5044351;28;19913;-60
2022/10/29 02:45:33;;;;;;;;;;;;;;;13.81;87.08;101976.75;5046039;28;19919;-61
2022/10/29 02:47:58;;;;;;;;;;;;;;;13.81;87.18;101974.09;5044231;28;19952;-61
2022/10/29 02:50:24;;;;;;;;;;;;;;;13.81;87.06;101973.25;5046498;28;20476;-61
2022/10/29 02:52:49;;;;;;;;;;;;;;;13.78;87.26;101971.75;5048122;28;19923;-61
2022/10/29 02:55:14;;;;;;;;;;;;;;;13.77;87.26;101975.41;5048023;28;19921;-61
2022/10/29 02:57:42;;;;;;;;;;;;;;;13.74;87.17;101975.75;5051668;28;19935;-61
2022/10/29 03:00:07;;;;;;;;;;;;;;;13.72;87.17;101977.75;5045743;28;19913;-61
2022/10/29 03:02:32;;;;;;;;;;;;;;;13.70;87.33;101970.91;5051011;28;19916;-60
2022/10/29 03:04:58;;;;;;;;;;;;;;;13.70;87.16;101968.22;5046459;28;20047;-61
2022/10/29 03:07:23;;;;;;;;;;;;;;;13.67;87.29;101964.06;5042877;28;20395;-60
2022/10/29 03:09:48;;;;;;;;;;;;;;;13.66;87.05;101962.38;5047539;28;19917;-61
2022/10/29 03:12:13;;;;;;;;;;;;;;;13.63;87.04;101963.56;5056088;28;20003;-61
2022/10/29 03:14:38;;;;;;;;;;;;;;;13.60;87.15;101957.72;5047954;28;20474;-61
2022/10/29 03:17:03;;;;;;;;;;;;;;;13.58;87.13;101960.50;5048403;28;19964;-61
2022/10/29 03:19:29;;;;;;;;;;;;;;;13.58;87.15;101957.84;5049216;28;20446;-61
2022/10/29 03:21:54;;;;;;;;;;;;;;;13.58;87.19;101949.84;5048402;28;19917;-60
2022/10/29 03:24:19;;;;;;;;;;;;;;;13.58;87.44;101946.31;5052591;28;20302;-61
2022/10/29 03:26:44;;;;;;;;;;;;;;;13.57;87.16;101948.16;5055446;28;19916;-61
2022/10/29 03:29:09;;;;;;;;;;;;;;;13.58;87.38;101954.34;5046919;28;20398;-61
2022/10/29 03:31:34;;;;;;;;;;;;;;;13.57;87.48;101960.66;5045957;28;20031;-60
2022/10/29 03:33:59;;;;;;;;;;;;;;;13.56;87.26;101959.00;5048478;28;19966;-61
2022/10/29 03:36:25;;;;;;;;;;;;;;;13.58;87.20;101959.69;5051740;28;20459;-60
2022/10/29 03:38:50;;;;;;;;;;;;;;;13.59;87.59;101951.53;5050087;28;19920;-60
2022/10/29 03:41:16;;;;;;;;;;;;;;;13.63;87.41;101947.53;5048605;28;19917;-61
2022/10/29 03:43:41;;;;;;;;;;;;;;;13.68;87.76;101949.72;5052032;28;20020;-60
2022/10/29 03:46:06;;;;;;;;;;;;;;;13.72;87.66;101942.22;5046250;28;19917;-59
2022/10/29 03:48:31;;;;;;;;;;;;;;;13.78;87.77;101944.22;5053088;28;19940;-61
2022/10/29 03:50:58;;;;;;;;;;;;;;;13.79;87.90;101938.72;5056093;28;20003;-61
2022/10/29 03:53:24;;;;;;;;;;;;;;;13.78;88.03;101939.72;5053518;28;19952;-61
2022/10/29 03:55:50;;;;;;;;;;;;;;;13.78;87.86;101944.22;5047516;28;19960;-61
2022/10/29 03:58:15;;;;;;;;;;;;;;;13.80;87.81;101943.03;5048550;28;19928;-60
2022/10/29 04:00:41;;;;;;;;;;;;;;;13.82;87.88;101938.38;5050277;28;20039;-60
2022/10/29 04:03:06;;;;;;;;;;;;;;;13.80;88.01;101935.03;5039872;28;19927;-61
2022/10/29 04:05:31;;;;;;;;;;;;;;;13.81;87.67;101931.38;5044819;28;20007;-61
2022/10/29 04:07:56;;;;;;;;;;;;;;;13.78;87.76;101921.00;5043120;28;19920;-61
2022/10/29 04:10:21;;;;;;;;;;;;;;;13.76;87.81;101924.84;5047599;28;20407;-60
2022/10/29 04:12:46;;;;;;;;;;;;;;;13.74;87.80;101917.00;5046850;28;19920;-61
2022/10/29 04:15:12;;;;;;;;;;;;;;;13.74;88.15;101909.00;5044569;28;20291;-61
2022/10/29 04:17:37;;;;;;;;;;;;;;;13.75;88.15;101902.66;5045702;28;20359;-61
2022/10/29 04:20:02;;;;;;;;;;;;;;;13.79;88.59;101903.16;5047041;28;20093;-60
2022/10/29 04:22:27;;;;;;;;;;;;;;;13.80;88.40;101911.00;5044109;28;20012;-61
2022/10/29 04:24:52;;;;;;;;;;;;;;;13.82;88.60;101913.50;5050739;28;19913;-61
2022/10/29 04:27:18;;;;;;;;;;;;;;;13.84;88.49;101906.16;5049092;28;20383;-61
2022/10/29 04:29:43;;;;;;;;;;;;;;;13.85;88.65;101902.50;5050948;28;19919;-61
2022/10/29 04:32:08;;;;;;;;;;;;;;;13.85;88.54;101903.31;5036324;28;20019;-60
2022/10/29 04:34:33;;;;;;;;;;;;;;;13.86;88.65;101899.66;5050899;28;20384;-61
2022/10/29 04:36:58;;;;;;;;;;;;;;;13.89;88.70;101887.84;5050058;28;19952;-60
2022/10/29 04:39:23;;;;;;;;;;;;;;;13.89;88.68;101883.31;5044270;28;20281;-61
2022/10/29 04:41:49;;;;;;;;;;;;;;;13.91;89.10;101892.00;5044369;28;19912;-60
2022/10/29 04:44:14;;;;;;;;;;;;;;;13.93;88.99;101891.84;5044709;28;19919;-61
2022/10/29 04:46:39;;;;;;;;;;;;;;;13.93;88.67;101895.34;5046203;28;19917;-61
2022/10/29 04:49:04;;;;;;;;;;;;;;;13.94;89.07;101901.53;5040548;28;20007;-60
2022/10/29 04:51:29;;;;;;;;;;;;;;;13.92;88.97;101903.53;5052040;28;19978;-61
2022/10/29 04:53:54;;;;;;;;;;;;;;;13.90;88.99;101894.84;5044157;28;19940;-61
2022/10/29 04:56:20;;;;;;;;;;;;;;;13.89;88.68;101893.19;5041590;28;19978;-61
2022/10/29 04:58:45;;;;;;;;;;;;;;;13.88;88.90;101902.19;5038994;28;19916;-60
2022/10/29 05:01:10;;;;;;;;;;;;;;;13.86;88.80;101904.16;5046507;28;20482;-61
2022/10/29 05:03:35;;;;;;;;;;;;;;;13.85;88.82;101906.00;5047248;28;19920;-61
2022/10/29 05:06:01;;;;;;;;;;;;;;;13.82;88.60;101908.16;5046731;28;20414;-61
2022/10/29 05:08:26;;;;;;;;;;;;;;;13.76;88.49;101901.66;5045963;28;19920;-60
2022/10/29 05:10:51;;;;;;;;;;;;;;;13.72;88.68;101900.31;5051422;28;19948;-61
2022/10/29 05:13:16;;;;;;;;;;;;;;;13.69;88.67;101895.31;5054166;28;19920;-61
2022/10/29 05:15:42;;;;;;;;;;;;;;;13.66;88.88;101890.31;5052006;28;20482;-60
2022/10/29 05:18:08;;;;;;;;;;;;;;;13.63;88.80;101890.66;5050447;28;19917;-61
2022/10/29 05:20:34;;;;;;;;;;;;;;;13.62;88.75;101894.31;5054791;28;19924;-60
2022/10/29 05:22:59;;;;;;;;;;;;;;;13.59;89.04;101887.47;5057604;28;19920;-61
2022/10/29 05:25:25;;;;;;;;;;;;;;;13.57;88.70;101884.09;5050711;28;19917;-61
2022/10/29 05:27:57;;;;;;;;;;;;;;;13.56;88.74;101886.94;5045686;28;19987;-60
2022/10/29 05:30:22;;;;;;;;;;;;;;;13.54;88.85;101883.59;5047935;28;19919;-61
2022/10/29 05:32:48;;;;;;;;;;;;;;;13.54;88.99;101887.09;5045985;28;20011;-61
2022/10/29 05:35:13;;;;;;;;;;;;;;;13.53;88.76;101887.28;5049442;28;20328;-61
2022/10/29 05:37:38;;;;;;;;;;;;;;;13.53;88.67;101881.94;5045748;28;19925;-61
2022/10/29 05:40:03;;;;;;;;;;;;;;;13.54;89.07;101876.44;5050256;28;19917;-60
2022/10/29 05:42:29;;;;;;;;;;;;;;;13.54;89.05;101872.94;5047259;28;19959;-61
2022/10/29 05:44:54;;;;;;;;;;;;;;;13.55;89.29;101872.75;5053625;28;19920;-60
2022/10/29 05:47:19;;;;;;;;;;;;;;;13.53;89.22;101872.09;5047996;28;19966;-61
2022/10/29 05:49:44;;;;;;;;;;;;;;;13.54;89.61;101860.41;5051441;28;19916;-61
2022/10/29 05:52:09;;;;;;;;;;;;;;;13.55;89.31;101867.44;5048518;28;19917;-61
2022/10/29 05:54:34;;;;;;;;;;;;;;;13.56;89.51;101865.59;5051610;28;19916;-61
2022/10/29 05:56:59;;;;;;;;;;;;;;;13.56;89.50;101858.41;5052880;28;19921;-61
2022/10/29 05:59:25;;;;;;;;;;;;;;;13.59;89.47;101859.94;5048513;28;19971;-61
2022/10/29 06:01:50;;;;;;;;;;;;;;;13.59;89.72;101849.28;5045089;28;19921;-60
2022/10/29 06:04:15;;;;;;;;;;;;;;;13.60;89.80;101850.94;5048914;28;19955;-61
2022/10/29 06:06:40;;;;;;;;;;;;;;;13.59;89.61;101850.09;5051664;28;19921;-60
2022/10/29 06:09:05;;;;;;;;;;;;;;;13.62;89.58;101847.09;5051368;28;19924;-61
2022/10/29 06:11:31;;;;;;;;;;;;;;;13.66;89.84;101830.75;5046130;28;19924;-61
2022/10/29 06:13:56;;;;;;;;;;;;;;;13.69;89.75;101844.59;5042530;28;19927;-60
2022/10/29 06:16:21;;;;;;;;;;;;;;;13.72;89.74;101846.09;5056552;28;19999;-61
2022/10/29 06:18:46;;;;;;;;;;;;;;;13.74;90.00;101841.44;5048927;28;19927;-61
2022/10/29 06:21:11;;;;;;;;;;;;;;;13.77;89.78;101855.28;5040648;28;20392;-60
2022/10/29 06:23:36;;;;;;;;;;;;;;;13.82;89.79;101865.44;5043689;28;20008;-60
2022/10/29 06:26:02;;;;;;;;;;;;;;;13.85;89.91;101852.59;5050659;28;19931;-61
2022/10/29 06:28:27;;;;;;;;;;;;;;;13.89;90.11;101851.28;5049776;28;19917;-60
2022/10/29 06:30:53;;;;;;;;;;;;;;;13.92;90.03;101850.94;5049148;28;20273;-61
2022/10/29 06:33:18;;;;;;;;;;;;;;;13.95;90.23;101842.59;5051691;28;19963;-60
2022/10/29 06:35:43;;;;;;;;;;;;;;;13.98;90.11;101854.78;5054708;28;19913;-61
2022/10/29 06:38:09;;;;;;;;;;;;;;;14.01;90.21;101866.97;5050817;28;19928;-60
2022/10/29 06:40:34;;;;;;;;;;;;;;;14.03;90.08;101862.28;5045469;28;20024;-61
2022/10/29 06:43:00;;;;;;;;;;;;;;;14.06;90.44;101861.94;5047158;28;19921;-60
2022/10/29 06:45:26;;;;;;;;;;;;;;;14.08;90.51;101866.09;5041420;28;20369;-59
2022/10/29 06:47:51;;;;;;;;;;;;;;;14.10;90.39;101863.28;5057403;28;19922;-60
2022/10/29 06:50:16;;;;;;;;;;;;;;;14.10;90.24;101864.09;5048615;28;20335;-60
2022/10/29 06:52:42;;;;;;;;;;;;;;;14.14;90.32;101870.78;5056399;28;19924;-60
2022/10/29 06:55:08;;;;;;;;;;;;;;;14.16;90.15;101873.28;5048171;28;19923;-61
2022/10/29 06:57:34;;;;;;;;;;;;;;;14.18;89.97;101865.94;5050181;28;20277;-60
2022/10/29 07:00:00;;;;;;;;;;;;;;;14.20;89.79;101866.63;5048497;28;19916;-61
2022/10/29 07:02:25;;;;;;;;;;;;;;;14.21;90.47;101877.13;5048489;28;19929;-61
2022/10/29 07:04:50;;;;;;;;;;;;;;;14.24;90.38;101873.28;5044072;28;19921;-61
2022/10/29 07:07:15;;;;;;;;;;;;;;;14.25;90.21;101866.94;5043175;28;19980;-60
2022/10/29 07:09:43;;;;;;;;;;;;;;;14.29;90.22;101867.44;5022494;28;20439;-59
2022/10/29 07:12:09;;;;;;;;;;;;;;;14.30;89.96;101869.94;5025911;28;19923;-60
2022/10/29 07:14:34;;;;;;;;;;;;;;;14.32;90.50;101872.44;5028831;28;20015;-61
2022/10/29 07:16:59;;;;;;;;;;;;;;;14.34;90.27;101867.75;5049337;28;19921;-61
2022/10/29 07:19:24;;;;;;;;;;;;;;;14.35;90.30;101872.91;5045393;28;19928;-60
2022/10/29 07:21:50;;;;;;;;;;;;;;;14.36;90.02;101860.41;5046710;28;19959;-59
2022/10/29 07:24:16;;;;;;;;;;;;;;;14.37;90.11;101865.56;5044740;28;20048;-61
2022/10/29 07:26:41;;;;;;;;;;;;;;;14.38;89.87;101861.06;5045868;28;19994;-61
2022/10/29 07:29:07;;;;;;;;;;;;;;;14.39;89.86;101852.03;5044374;28;19920;-61
2022/10/29 07:31:32;;;;;;;;;;;;;;;14.41;90.34;101845.50;5044614;28;19923;-61
2022/10/29 07:33:57;;;;;;;;;;;;;;;14.43;90.59;101854.22;5057180;28;20527;-61
2022/10/29 07:36:22;;;;;;;;;;;;;;;14.43;90.87;101859.56;5046845;28;19948;-61
2022/10/29 07:38:48;;;;;;;;;;;;;;;14.46;90.51;101855.75;5044851;28;19962;-60
2022/10/29 07:41:13;;;;;;;;;;;;;;;14.48;90.95;101853.72;5047106;28;19917;-61
2022/10/29 07:43:38;;;;;;;;;;;;;;;14.50;90.58;101857.91;5042593;28;19916;-61
2022/10/29 07:46:03;;;;;;;;;;;;;;;14.52;91.03;101847.88;5037784;28;19927;-61
2022/10/29 07:48:28;;;;;;;;;;;;;;;14.55;90.77;101852.03;5036343;28;20015;-61
2022/10/29 07:50:56;;;;;;;;;;;;;;;14.59;90.55;101847.19;5039748;28;19917;-60
2022/10/29 07:53:21;;;;;;;;;;;;;;;14.63;90.74;101843.16;5055958;28;20348;-59
2022/10/29 07:55:53;;;;;;;;;;;;;;;14.70;91.11;101842.28;5042277;28;20007;-61
2022/10/29 07:58:18;;;;;;;;;;;;;;;14.78;91.66;101846.78;5038187;28;20013;-60
2022/10/29 08:00:43;;;;;;;;;;;;;;;14.85;91.44;101842.41;5045628;28;20001;-61
2022/10/29 08:03:10;;;;;;;;;;;;;;;14.89;91.69;101843.72;5049423;28;19913;-61
2022/10/29 08:05:35;;;;;;;;;;;;;;;14.94;91.42;101835.16;5048655;28;20342;-61
2022/10/29 08:08:00;;;;;;;;;;;;;;;14.99;91.47;101840.81;5041436;28;19928;-60
2022/10/29 08:10:26;;;;;;;;;;;;;;;15.03;91.13;101840.28;5043341;28;19928;-61
2022/10/29 08:12:52;;;;;;;;;;;;;;;15.08;91.35;101842.47;5041026;28;19928;-61
2022/10/29 08:15:18;;;;;;;;;;;;;;;15.10;91.10;101835.91;5046005;28;19928;-61
2022/10/29 08:17:43;;;;;;;;;;;;;;;15.13;90.92;101832.88;5046315;28;19921;-61
2022/10/29 08:20:08;;;;;;;;;;;;;;;15.16;90.75;101829.84;5048158;28;19917;-60
2022/10/29 08:22:34;;;;;;;;;;;;;;;15.19;90.39;101824.16;5044988;28;20403;-60
2022/10/29 08:24:59;;;;;;;;;;;;;;;15.23;90.96;101832.66;5039849;28;19924;-60
2022/10/29 08:27:24;;;;;;;;;;;;;;;15.27;90.68;101833.13;5044836;28;20046;-61
2022/10/29 08:29:49;;;;;;;;;;;;;;;15.29;90.71;101829.25;5054746;28;19962;-60
2022/10/29 08:32:14;;;;;;;;;;;;;;;15.32;90.25;101807.50;5041118;28;19916;-61
2022/10/29 08:34:39;;;;;;;;;;;;;;;15.35;90.08;101807.16;5041845;28;19959;-60
2022/10/29 08:37:05;;;;;;;;;;;;;;;15.39;90.16;101816.50;5038862;28;20475;-60
2022/10/29 08:39:30;;;;;;;;;;;;;;;15.44;90.52;101815.97;5047723;28;19920;-60
2022/10/29 08:42:14;;;;;;;;;;;;;;;15.51;90.97;101822.25;5049768;28;20015;-61
2022/10/29 08:44:59;;;;;;;;;;;;;;;15.59;90.83;101826.75;5044274;28;19916;-59
2022/10/29 08:47:24;;;;;;;;;;;;;;;15.66;90.54;101836.59;5040475;28;19917;-60
2022/10/29 08:50:01;;;;;;;;;;;;;;;15.71;90.15;101834.19;5050444;28;19932;-60
2022/10/29 08:52:27;;;;;;;;;;;;;;;15.79;90.49;101844.00;5052219;28;19917;-61
2022/10/29 08:55:04;;;;;;;;;;;;;;;15.87;90.71;101829.69;5052958;28;20269;-61
2022/10/29 08:57:32;;;;;;;;;;;;;;;15.93;90.66;101827.16;5050458;28;20292;-61
2022/10/29 09:00:04;;;;;;;;;;;;;;;15.98;90.62;101819.38;5045150;28;19971;-61
2022/10/29 09:02:29;;;;;;;;;;;;;;;16.04;90.52;101831.22;5054722;28;19920;-60
2022/10/29 09:04:55;;;;;;;;;;;;;;;16.08;90.04;101819.13;5052458;28;19917;-61
2022/10/29 09:07:20;;;;;;;;;;;;;;;16.13;89.88;101819.41;5055690;28;19952;-60
2022/10/29 09:09:52;;;;;;;;;;;;;;;16.17;89.63;101804.59;5042443;28;20289;-61
2022/10/29 09:12:20;;;;;;;;;;;;;;;16.21;89.83;101803.25;5050547;28;20508;-61
2022/10/29 09:14:54;;;;;;;;;;;;;;;16.26;89.64;101800.84;5049637;28;19924;-61
2022/10/29 09:17:45;;;;;;;;;;;;;;;16.32;89.46;101810.00;5046750;28;20395;-60
2022/10/29 09:20:16;;;;;;;;;;;;;;;16.36;89.58;101806.75;5028915;28;19917;-61
2022/10/29 09:22:53;;;;;;;;;;;;;;;16.41;89.50;101799.00;5041898;28;19924;-61
2022/10/29 09:25:37;;;;;;;;;;;;;;;16.47;89.20;101807.31;5043523;28;19924;-61
2022/10/29 09:28:02;;;;;;;;;;;;;;;16.52;89.08;101799.56;5055542;28;19913;-61
2022/10/29 09:30:29;;;;;;;;;;;;;;;16.56;89.21;101806.22;5049650;28;19969;-60
2022/10/29 09:33:14;;;;;;;;;;;;;;;16.59;89.10;101803.16;5052828;28;20053;-61
2022/10/29 09:35:43;;;;;;;;;;;;;;;16.63;89.13;101799.06;5056175;28;19928;-60
2022/10/29 09:38:19;;;;;;;;;;;;;;;16.66;88.81;101798.72;5048015;28;20482;-61
2022/10/29 09:40:45;;;;;;;;;;;;;;;16.69;88.93;101783.09;5044576;28;20384;-61
2022/10/29 09:43:13;;;;;;;;;;;;;;;16.72;89.24;101774.66;5056346;28;19920;-60
2022/10/29 09:45:42;;;;;;;;;;;;;;;16.74;89.25;101795.94;5040298;28;19917;-60
2022/10/29 09:48:12;;;;;;;;;;;;;;;16.77;88.87;101795.59;5043723;28;19916;-60
2022/10/29 09:50:59;;;;;;;;;;;;;;;16.80;89.04;101803.25;5049069;28;19927;-60
2022/10/29 09:53:24;;;;;;;;;;;;;;;16.84;89.26;101790.28;5038484;28;19920;-61
2022/10/29 09:55:52;;;;;;;;;;;;;;;16.88;88.92;101775.47;5047581;28;19913;-61
2022/10/29 09:58:21;;;;;;;;;;;;;;;16.93;88.55;101770.38;5050424;28;19928;-61
2022/10/29 10:00:47;;;;;;;;;;;;;;;16.97;88.61;101774.31;5044944;28;19962;-61
2022/10/29 10:03:17;;;;;;;;;;;;;;;17.04;88.40;101780.59;5050987;28;19916;-61
2022/10/29 10:06:01;;;;;;;;;;;;;;;17.11;88.51;101781.50;5058762;28;20273;-60
2022/10/29 10:08:27;;;;;;;;;;;;;;;17.19;88.44;101783.25;5045879;28;19976;-61
2022/10/29 10:10:53;;;;;;;;;;;;;;;17.27;88.45;101777.75;5047050;28;19974;-61
2022/10/29 10:13:21;;;;;;;;;;;;;;;17.35;88.46;101766.88;5044056;28;20593;-61
2022/10/29 10:15:53;;;;;;;;;;;;;;;17.45;88.08;101774.63;5050722;28;20511;-61
2022/10/29 10:18:31;;;;;;;;;;;;;;;17.57;88.21;101776.56;5050023;28;20419;-61
2022/10/29 10:20:59;;;;;;;;;;;;;;;17.71;88.31;101776.72;5047423;28;20540;-61
2022/10/29 10:23:27;;;;;;;;;;;;;;;17.83;88.54;101773.28;5047626;28;19919;-61
2022/10/29 10:25:53;;;;;;;;;;;;;;;17.92;88.40;101772.13;5051989;28;19931;-60
2022/10/29 10:28:22;;;;;;;;;;;;;;;18.00;87.89;101751.50;5046749;28;19952;-61
2022/10/29 10:31:03;;;;;;;;;;;;;;;18.09;87.21;101759.22;5049487;28;19949;-61
2022/10/29 10:33:29;;;;;;;;;;;;;;;18.19;87.09;101754.28;5043354;28;19963;-61
2022/10/29 10:35:59;;;;;;;;;;;;;;;18.31;87.19;101745.69;5054633;28;19963;-62
2022/10/29 10:38:24;;;;;;;;;;;;;;;18.44;86.89;101746.56;5049951;28;19921;-61
2022/10/29 10:40:54;;;;;;;;;;;;;;;18.57;86.80;101740.44;5051655;28;19923;-61
2022/10/29 10:43:20;;;;;;;;;;;;;;;18.69;86.66;101738.84;5050740;28;19913;-61
2022/10/29 10:45:51;;;;;;;;;;;;;;;18.79;86.30;101752.75;5049328;28;19917;-61
2022/10/29 10:48:16;;;;;;;;;;;;;;;18.88;86.04;101748.00;5049728;28;19920;-61
2022/10/29 10:50:42;;;;;;;;;;;;;;;18.97;84.79;101741.41;5047209;28;19978;-60
2022/10/29 10:53:17;;;;;;;;;;;;;;;19.09;84.50;101747.84;5045765;28;19921;-61
2022/10/29 10:55:56;;;;;;;;;;;;;;;19.16;83.93;101732.53;5046132;28;19920;-61
2022/10/29 10:58:27;;;;;;;;;;;;;;;19.27;83.41;101732.94;5044697;28;20308;-61
2022/10/29 11:00:56;;;;;;;;;;;;;;;19.39;83.44;101723.22;5043664;28;19948;-59
2022/10/29 11:03:44;;;;;;;;;;;;;;;19.44;83.26;101724.25;5049676;28;19924;-59
2022/10/29 11:06:22;;;;;;;;;;;;;;;19.63;81.19;101727.16;5034843;28;19917;-59
2022/10/29 11:08:59;;;;;;;;;;;;;;;19.82;78.97;101739.81;5043052;28;19924;-59
2022/10/29 11:11:26;;;;;;;;;;;;;;;19.99;79.55;101726.72;5040236;28;19923;-59
2022/10/29 11:13:53;;;;;;;;;;;;;;;20.08;78.88;101734.38;5048485;28;20392;-59
2022/10/29 11:16:22;;;;;;;;;;;;;;;20.18;79.00;101735.78;5050807;28;19920;-59
2022/10/29 11:18:52;;;;;;;;;;;;;;;20.26;79.06;101731.00;5046568;28;19921;-59
2022/10/29 11:21:23;;;;;;;;;;;;;;;20.32;78.30;101734.72;5041277;28;19916;-59
2022/10/29 11:23:54;;;;;;;;;;;;;;;20.42;76.87;101730.53;5041326;28;19925;-59
2022/10/29 11:26:34;;;;;;;;;;;;;;;20.56;76.00;101722.41;5039201;28;19917;-61
2022/10/29 11:29:07;;;;;;;;;;;;;;;20.73;74.71;101727.06;5038755;28;19931;-62
2022/10/29 11:31:41;;;;;;;;;;;;;;;20.92;74.70;101721.78;5039776;28;19924;-61
2022/10/29 11:34:14;;;;;;;;;;;;;;;21.09;74.38;101724.78;5027381;28;19925;-59
2022/10/29 11:36:44;;;;;;;;;;;;;;;21.20;73.93;101716.81;5036314;28;19921;-59
2022/10/29 11:39:18;;;;;;;;;;;;;;;21.29;74.90;101712.81;5042373;28;19962;-60
2022/10/29 11:41:47;;;;;;;;;;;;;;;21.37;75.13;101709.00;5036756;28;19960;-59
2022/10/29 11:44:13;;;;;;;;;;;;;;;21.41;74.70;101715.66;5035409;28;20024;-59
2022/10/29 11:46:57;;;;;;;;;;;;;;;21.45;74.30;101707.91;5038315;28;19962;-59
2022/10/29 11:49:41;;;;;;;;;;;;;;;21.48;74.32;101707.47;5037603;28;19925;-59
2022/10/29 11:52:09;;;;;;;;;;;;;;;21.49;73.24;101696.44;5040046;28;19920;-59
2022/10/29 11:54:43;;;;;;;;;;;;;;;21.53;71.59;101703.06;5047491;28;19925;-59
2022/10/29 11:57:15;;;;;;;;;;;;;;;21.62;72.72;101698.19;5038729;28;20628;-60
2022/10/29 12:00:02;;;;;;;;;;;;;;;21.71;73.09;101699.56;5040949;28;19917;-59
2022/10/29 12:02:33;;;;;;;;;;;;;;;21.82;73.11;101696.09;5045241;28;19967;-59
2022/10/29 12:05:01;;;;;;;;;;;;;;;21.89;72.52;101696.03;5042301;28;19921;-59
2022/10/29 12:07:36;;;;;;;;;;;;;;;21.94;71.16;101698.88;5045042;28;19959;-59
2022/10/29 12:10:11;;;;;;;;;;;;;;;22.03;71.93;101688.63;5056285;28;20610;-59
2022/10/29 12:12:36;;;;;;;;;;;;;;;22.12;70.99;101684.56;5051633;28;19955;-58
2022/10/29 12:15:11;;;;;;;;;;;;;;;22.17;68.40;101682.84;5040308;28;20360;-58
2022/10/29 12:17:48;;;;;;;;;;;;;;;22.32;67.47;101678.94;5041878;28;19920;-59
2022/10/29 12:20:21;;;;;;;;;;;;;;;22.44;66.18;101671.66;5046831;28;19932;-59
2022/10/29 12:22:50;;;;;;;;;;;;;;;22.63;67.53;101669.75;5043328;28;19920;-59
2022/10/29 12:25:18;;;;;;;;;;;;;;;22.75;67.29;101671.44;5045447;28;19934;-59
2022/10/29 12:27:49;;;;;;;;;;;;;;;22.85;67.47;101663.63;5049892;28;20029;-59
2022/10/29 12:30:16;;;;;;;;;;;;;;;22.95;67.06;101656.81;5046862;28;20047;-59
2022/10/29 12:32:44;;;;;;;;;;;;;;;23.05;64.76;101663.28;5043897;28;19931;-59
2022/10/29 12:35:21;;;;;;;;;;;;;;;23.17;67.28;101652.47;5045925;28;19916;-59
2022/10/29 12:38:05;;;;;;;;;;;;;;;23.24;66.45;101653.19;5040518;28;19931;-59
2022/10/29 12:40:33;;;;;;;;;;;;;;;23.34;67.14;101649.88;5050714;28;19941;-59